sensor_id;sensor_type;location;lat;lon;timestamp;pressure;altitude;pressure_sealevel;temperature;humidity
58739;BME280;44512;53.046;18.604;2023-02-17T00:04:27;101913.41;;;6.55;69.31
58739;BME280;44512;53.046;18.604;2023-02-17T00:14:52;101917.66;;;6.58;69.49
58739;BME280;44512;53.046;18.604;2023-02-17T00:25:21;101924.88;;;6.57;69.57
58739;BME280;44512;53.046;18.604;2023-02-17T00:35:49;101917.79;;;6.56;69.70
58739;BME280;44512;53.046;18.604;2023-02-17T00:46:18;101912.57;;;6.55;69.78
58739;BME280;44512;53.046;18.604;2023-02-17T00:56:46;101905.34;;;6.55;69.83
58739;BME280;44512;53.046;18.604;2023-02-17T01:07:15;101890.89;;;6.56;69.84
58739;BME280;44512;53.046;18.604;2023-02-17T01:17:43;101879.45;;;6.54;69.86
58739;BME280;44512;53.046;18.604;2023-02-17T01:28:16;101855.23;;;6.54;69.89
58739;BME280;44512;53.046;18.604;2023-02-17T01:38:40;101844.47;;;6.54;69.94
58739;BME280;44512;53.046;18.604;2023-02-17T01:59:37;101807.21;;;6.59;69.93
58739;BME280;44512;53.046;18.604;2023-02-17T02:10:07;101807.21;;;6.59;69.88
58739;BME280;44512;53.046;18.604;2023-02-17T02:41:40;101769.27;;;6.62;69.89
58739;BME280;44512;53.046;18.604;2023-02-17T02:52:09;101754.10;;;6.61;69.88
58739;BME280;44512;53.046;18.604;2023-02-17T03:02:39;101759.79;;;6.58;69.87
58739;BME280;44512;53.046;18.604;2023-02-17T03:12:57;101752.73;;;6.57;69.89
58739;BME280;44512;53.046;18.604;2023-02-17T03:23:24;101747.34;;;6.57;69.92
58739;BME280;44512;53.046;18.604;2023-02-17T03:33:53;101741.41;;;6.53;70.02
58739;BME280;44512;53.046;18.604;2023-02-17T03:44:21;101729.80;;;6.53;70.13
58739;BME280;44512;53.046;18.604;2023-02-17T03:54:50;101715.34;;;6.54;70.23
58739;BME280;44512;53.046;18.604;2023-02-17T04:05:18;101704.31;;;6.57;70.29
58739;BME280;44512;53.046;18.604;2023-02-17T04:15:47;101682.79;;;6.57;70.36
58739;BME280;44512;53.046;18.604;2023-02-17T04:26:15;101654.73;;;6.60;70.33
58739;BME280;44512;53.046;18.604;2023-02-17T04:36:44;101662.80;;;6.60;70.24
58739;BME280;44512;53.046;18.604;2023-02-17T04:47:12;101645.64;;;6.61;70.28
58739;BME280;44512;53.046;18.604;2023-02-17T04:57:40;101647.20;;;6.63;70.25
58739;BME280;44512;53.046;18.604;2023-02-17T05:08:09;101657.35;;;6.69;70.15
58739;BME280;44512;53.046;18.604;2023-02-17T05:18:37;101648.37;;;6.78;70.10
58739;BME280;44512;53.046;18.604;2023-02-17T05:29:06;101650.89;;;6.80;69.80
58739;BME280;44512;53.046;18.604;2023-02-17T05:39:34;101638.28;;;6.81;69.45
58739;BME280;44512;53.046;18.604;2023-02-17T05:50:03;101628.53;;;6.79;69.18
58739;BME280;44512;53.046;18.604;2023-02-17T06:00:31;101617.77;;;6.79;68.83
58739;BME280;44512;53.046;18.604;2023-02-17T06:10:59;101625.99;;;6.78;68.63
58739;BME280;44512;53.046;18.604;2023-02-17T06:21:28;101616.37;;;6.75;68.70
58739;BME280;44512;53.046;18.604;2023-02-17T06:31:56;101617.09;;;6.77;68.86
58739;BME280;44512;53.046;18.604;2023-02-17T06:42:25;101619.45;;;6.81;69.11
58739;BME280;44512;53.046;18.604;2023-02-17T06:52:53;101603.01;;;6.84;69.24
58739;BME280;44512;53.046;18.604;2023-02-17T07:03:22;101612.59;;;6.86;69.32
58739;BME280;44512;53.046;18.604;2023-02-17T07:13:50;101600.54;;;6.90;69.57
58739;BME280;44512;53.046;18.604;2023-02-17T07:24:19;101598.68;;;6.91;69.79
58739;BME280;44512;53.046;18.604;2023-02-17T07:34:47;101593.63;;;6.88;70.05
58739;BME280;44512;53.046;18.604;2023-02-17T07:45:16;101595.06;;;6.82;70.88
58739;BME280;44512;53.046;18.604;2023-02-17T07:55:44;101595.70;;;6.76;71.74
58739;BME280;44512;53.046;18.604;2023-02-17T08:06:20;101573.65;;;6.72;72.34
58739;BME280;44512;53.046;18.604;2023-02-17T08:16:41;101554.95;;;6.71;72.79
58739;BME280;44512;53.046;18.604;2023-02-17T08:27:09;101535.81;;;6.74;73.19
58739;BME280;44512;53.046;18.604;2023-02-17T08:37:38;101529.43;;;6.75;73.63
58739;BME280;44512;53.046;18.604;2023-02-17T08:48:06;101505.05;;;6.76;73.79
58739;BME280;44512;53.046;18.604;2023-02-17T08:58:35;101491.77;;;6.75;74.20
58739;BME280;44512;53.046;18.604;2023-02-17T09:09:04;101478.30;;;6.75;74.63
58739;BME280;44512;53.046;18.604;2023-02-17T09:19:32;101475.45;;;6.76;75.09
58739;BME280;44512;53.046;18.604;2023-02-17T09:35:01;101454.63;;;6.78;75.70
58739;BME280;44512;53.046;18.604;2023-02-17T09:45:34;101448.91;;;6.82;76.19
58739;BME280;44512;53.046;18.604;2023-02-17T09:56:02;101430.78;;;6.84;76.55
58739;BME280;44512;53.046;18.604;2023-02-17T10:06:36;101423.08;;;6.89;76.78
58739;BME280;44512;53.046;18.604;2023-02-17T10:38:02;101369.02;;;7.08;77.25
58739;BME280;44512;53.046;18.604;2023-02-17T10:48:25;101340.59;;;7.14;77.46
58739;BME280;44512;53.046;18.604;2023-02-17T10:58:54;101305.95;;;7.19;77.78
58739;BME280;44512;53.046;18.604;2023-02-17T11:09:21;101272.28;;;7.23;78.12
58739;BME280;44512;53.046;18.604;2023-02-17T11:19:53;101246.53;;;7.28;78.48
58739;BME280;44512;53.046;18.604;2023-02-17T11:30:16;101220.97;;;7.33;78.55
58739;BME280;44512;53.046;18.604;2023-02-17T11:40:53;101195.40;;;7.37;78.54
58739;BME280;44512;53.046;18.604;2023-02-17T12:33:16;101087.27;;;7.64;78.77
58739;BME280;44512;53.046;18.604;2023-02-17T12:54:12;101034.72;;;7.76;79.29
58739;BME280;44512;53.046;18.604;2023-02-17T13:04:32;101003.71;;;7.80;79.71
58739;BME280;44512;53.046;18.604;2023-02-17T13:15:03;100988.84;;;7.84;80.08
58739;BME280;44512;53.046;18.604;2023-02-17T13:25:30;100961.18;;;7.91;80.27
58739;BME280;44512;53.046;18.604;2023-02-17T13:35:56;100948.02;;;7.96;80.46
58739;BME280;44512;53.046;18.604;2023-02-17T13:46:25;100914.30;;;8.00;80.69
58739;BME280;44512;53.046;18.604;2023-02-17T13:56:53;100882.26;;;8.05;80.85
58739;BME280;44512;53.046;18.604;2023-02-17T14:07:21;100859.12;;;8.10;81.03
58739;BME280;44512;53.046;18.604;2023-02-17T14:17:50;100817.11;;;8.16;81.14
58739;BME280;44512;53.046;18.604;2023-02-17T14:28:24;100786.07;;;8.20;81.22
58739;BME280;44512;53.046;18.604;2023-02-17T14:38:55;100764.78;;;8.25;81.29
58739;BME280;44512;53.046;18.604;2023-02-17T14:49:15;100735.41;;;8.30;81.36
58739;BME280;44512;53.046;18.604;2023-02-17T14:59:44;100732.16;;;8.35;81.43
58739;BME280;44512;53.046;18.604;2023-02-17T15:10:24;100718.15;;;8.40;81.51
58739;BME280;44512;53.046;18.604;2023-02-17T15:20:42;100690.82;;;8.43;81.64
58739;BME280;44512;53.046;18.604;2023-02-17T15:31:11;100669.68;;;8.46;81.77
58739;BME280;44512;53.046;18.604;2023-02-17T15:41:38;100651.08;;;8.51;81.90
58739;BME280;44512;53.046;18.604;2023-02-17T15:52:10;100639.08;;;8.54;81.98
58739;BME280;44512;53.046;18.604;2023-02-17T16:02:34;100620.45;;;8.59;82.02
58739;BME280;44512;53.046;18.604;2023-02-17T16:13:02;100587.68;;;8.62;82.10
58739;BME280;44512;53.046;18.604;2023-02-17T16:23:31;100579.86;;;8.67;82.24
58739;BME280;44512;53.046;18.604;2023-02-17T16:33:59;100566.63;;;8.72;82.44
58739;BME280;44512;53.046;18.604;2023-02-17T16:44:27;100555.06;;;8.78;82.70
58739;BME280;44512;53.046;18.604;2023-02-17T16:54:56;100528.98;;;8.85;83.07
58739;BME280;44512;53.046;18.604;2023-02-17T17:05:27;100519.06;;;8.93;83.32
58739;BME280;44512;53.046;18.604;2023-02-17T17:15:53;100514.58;;;9.00;83.57
58739;BME280;44512;53.046;18.604;2023-02-17T17:26:34;100496.34;;;9.08;83.86
58739;BME280;44512;53.046;18.604;2023-02-17T17:36:49;100464.44;;;9.19;84.12
58739;BME280;44512;53.046;18.604;2023-02-17T17:47:19;100470.52;;;9.27;84.31
58739;BME280;44512;53.046;18.604;2023-02-17T17:57:46;100460.41;;;9.36;84.41
58739;BME280;44512;53.046;18.604;2023-02-17T18:08:15;100451.91;;;9.46;84.49
58739;BME280;44512;53.046;18.604;2023-02-17T18:18:43;100459.87;;;9.54;84.51
58739;BME280;44512;53.046;18.604;2023-02-17T18:29:11;100438.09;;;9.62;84.49
58739;BME280;44512;53.046;18.604;2023-02-17T18:39:40;100440.61;;;9.70;84.42
58739;BME280;44512;53.046;18.604;2023-02-17T18:50:09;100417.34;;;9.76;84.30
58739;BME280;44512;53.046;18.604;2023-02-17T19:00:37;100411.98;;;9.82;83.96
58739;BME280;44512;53.046;18.604;2023-02-17T19:11:05;100372.05;;;9.91;83.79
58739;BME280;44512;53.046;18.604;2023-02-17T19:21:33;100416.37;;;9.97;83.91
58739;BME280;44512;53.046;18.604;2023-02-17T19:32:03;100414.10;;;10.00;83.06
58739;BME280;44512;53.046;18.604;2023-02-17T19:42:30;100440.92;;;10.02;80.25
58739;BME280;44512;53.046;18.604;2023-02-17T19:52:59;100452.34;;;9.97;77.86
58739;BME280;44512;53.046;18.604;2023-02-17T20:03:27;100469.59;;;9.89;74.57
58739;BME280;44512;53.046;18.604;2023-02-17T20:13:57;100491.37;;;9.81;72.24
58739;BME280;44512;53.046;18.604;2023-02-17T20:24:24;100507.58;;;9.75;70.61
58739;BME280;44512;53.046;18.604;2023-02-17T20:34:52;100496.73;;;9.68;70.36
58739;BME280;44512;53.046;18.604;2023-02-17T20:45:20;100484.21;;;9.60;68.75
58739;BME280;44512;53.046;18.604;2023-02-17T20:55:49;100480.86;;;9.52;68.02
58739;BME280;44512;53.046;18.604;2023-02-17T21:06:26;100495.15;;;9.46;66.89
58739;BME280;44512;53.046;18.604;2023-02-17T21:16:46;100487.83;;;9.39;66.05
58739;BME280;44512;53.046;18.604;2023-02-17T21:27:14;100501.31;;;9.33;63.78
58739;BME280;44512;53.046;18.604;2023-02-17T21:37:42;100523.95;;;9.32;63.28
58739;BME280;44512;53.046;18.604;2023-02-17T21:48:11;100566.34;;;9.31;61.69
58739;BME280;44512;53.046;18.604;2023-02-17T21:58:43;100542.16;;;9.23;56.25
58739;BME280;44512;53.046;18.604;2023-02-17T22:09:08;100536.68;;;9.10;54.74
58739;BME280;44512;53.046;18.604;2023-02-17T22:19:36;100522.01;;;8.98;55.93
58739;BME280;44512;53.046;18.604;2023-02-17T22:30:05;100524.87;;;8.90;57.11
58739;BME280;44512;53.046;18.604;2023-02-17T22:40:33;100527.33;;;8.84;57.17
58739;BME280;44512;53.046;18.604;2023-02-17T22:51:06;100535.16;;;8.79;56.15
58739;BME280;44512;53.046;18.604;2023-02-17T23:01:32;100510.62;;;8.74;55.05
58739;BME280;44512;53.046;18.604;2023-02-17T23:11:58;100526.80;;;8.74;54.33
58739;BME280;44512;53.046;18.604;2023-02-17T23:22:26;100520.58;;;8.74;54.15
58739;BME280;44512;53.046;18.604;2023-02-17T23:32:55;100522.41;;;8.73;54.67
58739;BME280;44512;53.046;18.604;2023-02-17T23:43:23;100540.88;;;8.70;54.72
58739;BME280;44512;53.046;18.604;2023-02-17T23:53:51;100565.73;;;8.65;53.84
